sensor_id;sensor_type;location;lat;lon;timestamp;temperature;humidity
18446;DHT22;9352;50.888;4.466;2022-07-06T00:02:23;15.80;99.90
18446;DHT22;9352;50.888;4.466;2022-07-06T00:04:51;15.80;99.90
18446;DHT22;9352;50.888;4.466;2022-07-06T00:07:17;15.80;99.90
18446;DHT22;9352;50.888;4.466;2022-07-06T00:09:45;15.80;99.90
18446;DHT22;9352;50.888;4.466;2022-07-06T00:12:12;15.70;99.90
18446;DHT22;9352;50.888;4.466;2022-07-06T00:14:40;15.70;99.90
18446;DHT22;9352;50.888;4.466;2022-07-06T00:17:07;15.70;99.90
18446;DHT22;9352;50.888;4.466;2022-07-06T00:19:34;15.70;99.90
18446;DHT22;9352;50.888;4.466;2022-07-06T00:22:01;15.60;99.90
18446;DHT22;9352;50.888;4.466;2022-07-06T00:24:28;15.60;99.90
18446;DHT22;9352;50.888;4.466;2022-07-06T00:26:54;15.60;99.90
18446;DHT22;9352;50.888;4.466;2022-07-06T00:29:21;15.50;99.90
18446;DHT22;9352;50.888;4.466;2022-07-06T00:31:49;15.50;99.90
18446;DHT22;9352;50.888;4.466;2022-07-06T00:34:16;15.50;99.90
18446;DHT22;9352;50.888;4.466;2022-07-06T00:36:43;15.50;99.90
18446;DHT22;9352;50.888;4.466;2022-07-06T00:39:10;15.50;99.90
18446;DHT22;9352;50.888;4.466;2022-07-06T00:41:37;15.50;99.90
18446;DHT22;9352;50.888;4.466;2022-07-06T00:44:07;15.40;99.90
18446;DHT22;9352;50.888;4.466;2022-07-06T00:46:35;15.40;99.90
18446;DHT22;9352;50.888;4.466;2022-07-06T00:49:03;15.40;99.90
18446;DHT22;9352;50.888;4.466;2022-07-06T00:51:32;15.40;99.90
18446;DHT22;9352;50.888;4.466;2022-07-06T00:54:03;15.30;99.90
18446;DHT22;9352;50.888;4.466;2022-07-06T00:56:31;15.30;99.90
18446;DHT22;9352;50.888;4.466;2022-07-06T00:58:59;15.40;99.90
18446;DHT22;9352;50.888;4.466;2022-07-06T01:01:26;15.30;99.90
18446;DHT22;9352;50.888;4.466;2022-07-06T01:03:53;15.30;99.90
18446;DHT22;9352;50.888;4.466;2022-07-06T01:06:21;15.30;99.90
18446;DHT22;9352;50.888;4.466;2022-07-06T01:08:48;15.30;99.90
18446;DHT22;9352;50.888;4.466;2022-07-06T01:11:16;15.30;99.90
18446;DHT22;9352;50.888;4.466;2022-07-06T01:13:45;15.30;99.90
18446;DHT22;9352;50.888;4.466;2022-07-06T01:16:12;15.20;99.90
18446;DHT22;9352;50.888;4.466;2022-07-06T01:18:40;15.10;99.90
18446;DHT22;9352;50.888;4.466;2022-07-06T01:21:10;15.10;99.90
18446;DHT22;9352;50.888;4.466;2022-07-06T01:23:41;15.10;99.90
18446;DHT22;9352;50.888;4.466;2022-07-06T01:26:10;15.10;99.90
18446;DHT22;9352;50.888;4.466;2022-07-06T01:28:37;15.20;99.90
18446;DHT22;9352;50.888;4.466;2022-07-06T01:31:04;15.10;99.90
18446;DHT22;9352;50.888;4.466;2022-07-06T01:33:31;15.10;99.90
18446;DHT22;9352;50.888;4.466;2022-07-06T01:35:58;15.10;99.90
18446;DHT22;9352;50.888;4.466;2022-07-06T01:38:27;15.10;99.90
18446;DHT22;9352;50.888;4.466;2022-07-06T01:40:53;15.10;99.90
18446;DHT22;9352;50.888;4.466;2022-07-06T01:43:20;15.10;99.90
18446;DHT22;9352;50.888;4.466;2022-07-06T01:45:47;15.10;99.90
18446;DHT22;9352;50.888;4.466;2022-07-06T01:48:14;15.10;99.90
18446;DHT22;9352;50.888;4.466;2022-07-06T01:50:41;15.00;99.90
18446;DHT22;9352;50.888;4.466;2022-07-06T01:53:08;15.00;99.90
18446;DHT22;9352;50.888;4.466;2022-07-06T01:55:36;15.00;99.90
18446;DHT22;9352;50.888;4.466;2022-07-06T01:58:03;14.90;99.90
18446;DHT22;9352;50.888;4.466;2022-07-06T02:00:29;14.90;99.90
18446;DHT22;9352;50.888;4.466;2022-07-06T02:02:56;14.80;99.90
18446;DHT22;9352;50.888;4.466;2022-07-06T02:05:23;14.80;99.90
18446;DHT22;9352;50.888;4.466;2022-07-06T02:07:50;14.70;99.90
18446;DHT22;9352;50.888;4.466;2022-07-06T02:10:17;14.70;99.90
18446;DHT22;9352;50.888;4.466;2022-07-06T02:12:46;14.60;99.90
18446;DHT22;9352;50.888;4.466;2022-07-06T02:15:13;14.60;99.90
18446;DHT22;9352;50.888;4.466;2022-07-06T02:17:40;14.60;99.90
18446;DHT22;9352;50.888;4.466;2022-07-06T02:20:08;14.60;99.90
18446;DHT22;9352;50.888;4.466;2022-07-06T02:22:35;14.50;99.90
18446;DHT22;9352;50.888;4.466;2022-07-06T02:25:03;14.50;99.90
18446;DHT22;9352;50.888;4.466;2022-07-06T02:27:30;14.40;99.90
18446;DHT22;9352;50.888;4.466;2022-07-06T02:29:58;14.40;99.90
18446;DHT22;9352;50.888;4.466;2022-07-06T02:32:25;14.30;99.90
18446;DHT22;9352;50.888;4.466;2022-07-06T02:34:52;14.30;99.90
18446;DHT22;9352;50.888;4.466;2022-07-06T02:37:19;14.20;99.90
18446;DHT22;9352;50.888;4.466;2022-07-06T02:39:45;14.20;99.90
18446;DHT22;9352;50.888;4.466;2022-07-06T02:42:13;14.20;99.90
18446;DHT22;9352;50.888;4.466;2022-07-06T02:44:39;14.20;99.90
18446;DHT22;9352;50.888;4.466;2022-07-06T02:47:11;14.10;99.90
18446;DHT22;9352;50.888;4.466;2022-07-06T02:49:37;14.20;99.90
18446;DHT22;9352;50.888;4.466;2022-07-06T02:52:05;14.10;99.90
18446;DHT22;9352;50.888;4.466;2022-07-06T02:54:31;14.10;99.90
18446;DHT22;9352;50.888;4.466;2022-07-06T02:56:58;14.10;99.90
18446;DHT22;9352;50.888;4.466;2022-07-06T02:59:25;14.10;99.90
18446;DHT22;9352;50.888;4.466;2022-07-06T03:01:52;14.10;99.90
18446;DHT22;9352;50.888;4.466;2022-07-06T03:04:20;14.10;99.90
18446;DHT22;9352;50.888;4.466;2022-07-06T03:06:47;14.10;99.90
18446;DHT22;9352;50.888;4.466;2022-07-06T03:09:14;14.10;99.90
18446;DHT22;9352;50.888;4.466;2022-07-06T03:11:40;14.00;99.90
18446;DHT22;9352;50.888;4.466;2022-07-06T03:14:07;14.10;99.90
18446;DHT22;9352;50.888;4.466;2022-07-06T03:16:34;14.00;99.90
18446;DHT22;9352;50.888;4.466;2022-07-06T03:19:01;14.00;99.90
18446;DHT22;9352;50.888;4.466;2022-07-06T03:21:29;13.90;99.90
18446;DHT22;9352;50.888;4.466;2022-07-06T03:23:56;13.90;99.90
18446;DHT22;9352;50.888;4.466;2022-07-06T03:26:23;13.90;99.90
18446;DHT22;9352;50.888;4.466;2022-07-06T03:28:50;13.80;99.90
18446;DHT22;9352;50.888;4.466;2022-07-06T03:31:17;13.80;99.90
18446;DHT22;9352;50.888;4.466;2022-07-06T03:33:44;13.70;99.90
18446;DHT22;9352;50.888;4.466;2022-07-06T03:36:11;13.70;99.90
18446;DHT22;9352;50.888;4.466;2022-07-06T03:38:40;13.70;99.90
18446;DHT22;9352;50.888;4.466;2022-07-06T03:41:07;13.70;99.90
18446;DHT22;9352;50.888;4.466;2022-07-06T03:43:34;13.70;99.90
18446;DHT22;9352;50.888;4.466;2022-07-06T03:46:01;13.70;99.90
18446;DHT22;9352;50.888;4.466;2022-07-06T03:48:27;13.70;99.90
18446;DHT22;9352;50.888;4.466;2022-07-06T03:50:54;13.70;99.90
18446;DHT22;9352;50.888;4.466;2022-07-06T03:53:21;13.70;99.90
18446;DHT22;9352;50.888;4.466;2022-07-06T03:55:50;13.70;99.90
18446;DHT22;9352;50.888;4.466;2022-07-06T03:58:31;13.70;99.90
18446;DHT22;9352;50.888;4.466;2022-07-06T04:00:58;13.70;99.90
18446;DHT22;9352;50.888;4.466;2022-07-06T04:03:25;13.70;99.90
18446;DHT22;9352;50.888;4.466;2022-07-06T04:05:52;13.70;99.90
18446;DHT22;9352;50.888;4.466;2022-07-06T04:08:19;13.70;99.90
18446;DHT22;9352;50.888;4.466;2022-07-06T04:10:46;13.70;99.90
18446;DHT22;9352;50.888;4.466;2022-07-06T04:13:14;13.70;99.90
18446;DHT22;9352;50.888;4.466;2022-07-06T04:15:41;13.70;99.90
18446;DHT22;9352;50.888;4.466;2022-07-06T04:18:08;13.70;99.90
18446;DHT22;9352;50.888;4.466;2022-07-06T04:20:35;13.80;99.90
18446;DHT22;9352;50.888;4.466;2022-07-06T04:23:02;13.80;99.90
18446;DHT22;9352;50.888;4.466;2022-07-06T04:25:29;13.90;99.90
18446;DHT22;9352;50.888;4.466;2022-07-06T04:27:56;13.90;99.90
18446;DHT22;9352;50.888;4.466;2022-07-06T04:30:24;13.90;99.90
18446;DHT22;9352;50.888;4.466;2022-07-06T04:32:51;14.00;99.90
18446;DHT22;9352;50.888;4.466;2022-07-06T04:35:18;14.10;99.90
18446;DHT22;9352;50.888;4.466;2022-07-06T04:37:45;14.10;99.90
18446;DHT22;9352;50.888;4.466;2022-07-06T04:40:12;14.20;99.90
18446;DHT22;9352;50.888;4.466;2022-07-06T04:42:39;14.20;99.90
18446;DHT22;9352;50.888;4.466;2022-07-06T04:45:07;14.20;99.90
18446;DHT22;9352;50.888;4.466;2022-07-06T04:47:36;14.30;99.90
18446;DHT22;9352;50.888;4.466;2022-07-06T04:50:04;14.30;99.90
18446;DHT22;9352;50.888;4.466;2022-07-06T04:52:31;14.20;99.90
18446;DHT22;9352;50.888;4.466;2022-07-06T04:54:58;14.20;99.90
18446;DHT22;9352;50.888;4.466;2022-07-06T04:57:25;14.30;99.90
18446;DHT22;9352;50.888;4.466;2022-07-06T04:59:55;14.30;99.90
18446;DHT22;9352;50.888;4.466;2022-07-06T05:02:22;14.30;99.90
18446;DHT22;9352;50.888;4.466;2022-07-06T05:04:50;14.30;99.90
18446;DHT22;9352;50.888;4.466;2022-07-06T05:07:17;14.40;99.90
18446;DHT22;9352;50.888;4.466;2022-07-06T05:09:44;14.40;99.90
18446;DHT22;9352;50.888;4.466;2022-07-06T05:12:11;14.50;99.90
18446;DHT22;9352;50.888;4.466;2022-07-06T05:14:38;14.60;99.90
18446;DHT22;9352;50.888;4.466;2022-07-06T05:17:05;14.60;99.90
18446;DHT22;9352;50.888;4.466;2022-07-06T05:19:32;14.70;99.90
18446;DHT22;9352;50.888;4.466;2022-07-06T05:22:00;14.80;99.90
18446;DHT22;9352;50.888;4.466;2022-07-06T05:24:27;14.90;99.90
18446;DHT22;9352;50.888;4.466;2022-07-06T05:26:54;15.00;99.90
18446;DHT22;9352;50.888;4.466;2022-07-06T05:29:21;15.10;99.90
18446;DHT22;9352;50.888;4.466;2022-07-06T05:31:47;15.30;99.90
18446;DHT22;9352;50.888;4.466;2022-07-06T05:34:15;15.50;99.90
18446;DHT22;9352;50.888;4.466;2022-07-06T05:36:42;15.60;99.90
18446;DHT22;9352;50.888;4.466;2022-07-06T05:39:10;15.80;99.90
18446;DHT22;9352;50.888;4.466;2022-07-06T05:41:38;16.00;99.90
18446;DHT22;9352;50.888;4.466;2022-07-06T05:44:04;16.20;99.90
18446;DHT22;9352;50.888;4.466;2022-07-06T05:46:31;16.30;99.90
18446;DHT22;9352;50.888;4.466;2022-07-06T05:48:58;16.50;99.90
18446;DHT22;9352;50.888;4.466;2022-07-06T05:51:42;16.80;99.90
18446;DHT22;9352;50.888;4.466;2022-07-06T05:54:11;17.00;99.90
18446;DHT22;9352;50.888;4.466;2022-07-06T05:56:37;17.20;99.90
18446;DHT22;9352;50.888;4.466;2022-07-06T05:59:04;17.40;99.90
18446;DHT22;9352;50.888;4.466;2022-07-06T06:01:31;17.50;99.90
18446;DHT22;9352;50.888;4.466;2022-07-06T06:03:58;17.50;99.90
18446;DHT22;9352;50.888;4.466;2022-07-06T06:06:25;17.50;99.90
18446;DHT22;9352;50.888;4.466;2022-07-06T06:08:52;17.50;99.90
18446;DHT22;9352;50.888;4.466;2022-07-06T06:11:21;17.50;99.90
18446;DHT22;9352;50.888;4.466;2022-07-06T06:13:47;17.60;99.90
18446;DHT22;9352;50.888;4.466;2022-07-06T06:16:14;17.70;99.90
18446;DHT22;9352;50.888;4.466;2022-07-06T06:18:42;17.80;99.90
18446;DHT22;9352;50.888;4.466;2022-07-06T06:21:09;17.70;99.90
18446;DHT22;9352;50.888;4.466;2022-07-06T06:23:36;17.70;99.90
18446;DHT22;9352;50.888;4.466;2022-07-06T06:26:03;17.70;99.90
18446;DHT22;9352;50.888;4.466;2022-07-06T06:28:32;17.90;99.90
18446;DHT22;9352;50.888;4.466;2022-07-06T06:30:59;18.00;99.90
18446;DHT22;9352;50.888;4.466;2022-07-06T06:33:25;18.20;99.90
18446;DHT22;9352;50.888;4.466;2022-07-06T06:35:53;18.30;99.90
18446;DHT22;9352;50.888;4.466;2022-07-06T06:38:22;18.50;99.90
18446;DHT22;9352;50.888;4.466;2022-07-06T06:40:51;18.50;99.90
18446;DHT22;9352;50.888;4.466;2022-07-06T06:43:18;18.60;99.90
18446;DHT22;9352;50.888;4.466;2022-07-06T06:45:46;18.60;99.90
18446;DHT22;9352;50.888;4.466;2022-07-06T06:48:15;18.50;99.90
18446;DHT22;9352;50.888;4.466;2022-07-06T06:50:43;18.60;99.90
18446;DHT22;9352;50.888;4.466;2022-07-06T06:53:10;18.40;99.90
18446;DHT22;9352;50.888;4.466;2022-07-06T06:55:37;18.40;99.90
18446;DHT22;9352;50.888;4.466;2022-07-06T06:58:03;18.40;99.90
18446;DHT22;9352;50.888;4.466;2022-07-06T07:00:30;18.40;99.90
18446;DHT22;9352;50.888;4.466;2022-07-06T07:02:58;18.40;99.90
18446;DHT22;9352;50.888;4.466;2022-07-06T07:05:26;18.50;99.90
18446;DHT22;9352;50.888;4.466;2022-07-06T07:07:53;18.70;99.90
18446;DHT22;9352;50.888;4.466;2022-07-06T07:10:24;18.80;99.90
18446;DHT22;9352;50.888;4.466;2022-07-06T07:12:52;18.90;99.90
18446;DHT22;9352;50.888;4.466;2022-07-06T07:15:19;19.00;99.90
18446;DHT22;9352;50.888;4.466;2022-07-06T07:17:46;19.20;99.90
18446;DHT22;9352;50.888;4.466;2022-07-06T07:20:14;19.20;99.90
18446;DHT22;9352;50.888;4.466;2022-07-06T07:22:41;19.40;99.90
18446;DHT22;9352;50.888;4.466;2022-07-06T07:25:10;19.30;99.90
18446;DHT22;9352;50.888;4.466;2022-07-06T07:27:37;19.20;99.90
18446;DHT22;9352;50.888;4.466;2022-07-06T07:30:05;19.30;99.90
18446;DHT22;9352;50.888;4.466;2022-07-06T07:32:32;19.50;99.90
18446;DHT22;9352;50.888;4.466;2022-07-06T07:34:59;19.40;99.90
18446;DHT22;9352;50.888;4.466;2022-07-06T07:37:28;19.50;99.90
18446;DHT22;9352;50.888;4.466;2022-07-06T07:39:55;19.70;99.90
18446;DHT22;9352;50.888;4.466;2022-07-06T07:42:22;19.90;99.90
18446;DHT22;9352;50.888;4.466;2022-07-06T07:44:48;19.70;99.90
18446;DHT22;9352;50.888;4.466;2022-07-06T07:47:15;19.90;99.90
18446;DHT22;9352;50.888;4.466;2022-07-06T07:49:42;20.00;99.90
18446;DHT22;9352;50.888;4.466;2022-07-06T07:52:09;20.00;99.90
18446;DHT22;9352;50.888;4.466;2022-07-06T07:54:37;19.80;99.90
18446;DHT22;9352;50.888;4.466;2022-07-06T07:57:05;20.10;99.90
18446;DHT22;9352;50.888;4.466;2022-07-06T07:59:32;20.20;99.90
18446;DHT22;9352;50.888;4.466;2022-07-06T08:01:59;20.20;99.90
18446;DHT22;9352;50.888;4.466;2022-07-06T08:04:26;20.20;99.90
18446;DHT22;9352;50.888;4.466;2022-07-06T08:06:52;20.30;99.90
18446;DHT22;9352;50.888;4.466;2022-07-06T08:09:19;20.30;99.90
18446;DHT22;9352;50.888;4.466;2022-07-06T08:11:47;20.50;99.90
18446;DHT22;9352;50.888;4.466;2022-07-06T08:14:14;20.40;99.90
18446;DHT22;9352;50.888;4.466;2022-07-06T08:16:42;20.50;99.90
18446;DHT22;9352;50.888;4.466;2022-07-06T08:19:09;20.40;99.90
18446;DHT22;9352;50.888;4.466;2022-07-06T08:21:39;20.50;99.90
18446;DHT22;9352;50.888;4.466;2022-07-06T08:24:07;20.50;99.90
18446;DHT22;9352;50.888;4.466;2022-07-06T08:26:34;20.50;99.90
18446;DHT22;9352;50.888;4.466;2022-07-06T08:29:03;20.60;99.90
18446;DHT22;9352;50.888;4.466;2022-07-06T08:31:30;20.60;99.90
18446;DHT22;9352;50.888;4.466;2022-07-06T08:33:58;20.30;99.90
18446;DHT22;9352;50.888;4.466;2022-07-06T08:36:25;20.00;99.90
18446;DHT22;9352;50.888;4.466;2022-07-06T08:38:52;20.10;99.90
18446;DHT22;9352;50.888;4.466;2022-07-06T08:41:23;20.00;99.90
18446;DHT22;9352;50.888;4.466;2022-07-06T08:43:50;20.30;99.90
18446;DHT22;9352;50.888;4.466;2022-07-06T08:46:19;20.70;99.90
18446;DHT22;9352;50.888;4.466;2022-07-06T08:48:48;20.90;99.90
18446;DHT22;9352;50.888;4.466;2022-07-06T08:51:15;21.00;99.90
18446;DHT22;9352;50.888;4.466;2022-07-06T08:53:43;21.10;99.90
18446;DHT22;9352;50.888;4.466;2022-07-06T08:56:10;21.00;99.90
18446;DHT22;9352;50.888;4.466;2022-07-06T08:58:37;20.90;99.90
18446;DHT22;9352;50.888;4.466;2022-07-06T09:01:09;21.00;99.90
18446;DHT22;9352;50.888;4.466;2022-07-06T09:03:40;21.30;99.90
18446;DHT22;9352;50.888;4.466;2022-07-06T09:06:08;21.50;99.90
18446;DHT22;9352;50.888;4.466;2022-07-06T09:08:35;21.10;99.90
18446;DHT22;9352;50.888;4.466;2022-07-06T09:11:03;21.30;99.90
18446;DHT22;9352;50.888;4.466;2022-07-06T09:13:30;21.80;99.90
18446;DHT22;9352;50.888;4.466;2022-07-06T09:16:08;22.20;99.90
18446;DHT22;9352;50.888;4.466;2022-07-06T09:18:36;21.60;99.90
18446;DHT22;9352;50.888;4.466;2022-07-06T09:21:05;21.80;99.90
18446;DHT22;9352;50.888;4.466;2022-07-06T09:23:32;21.90;99.90
18446;DHT22;9352;50.888;4.466;2022-07-06T09:26:01;22.40;99.90
18446;DHT22;9352;50.888;4.466;2022-07-06T09:28:40;22.60;99.90
18446;DHT22;9352;50.888;4.466;2022-07-06T09:31:07;23.20;99.90
18446;DHT22;9352;50.888;4.466;2022-07-06T09:33:35;23.60;99.90
18446;DHT22;9352;50.888;4.466;2022-07-06T09:36:02;22.90;99.90
18446;DHT22;9352;50.888;4.466;2022-07-06T09:38:32;23.20;99.90
18446;DHT22;9352;50.888;4.466;2022-07-06T09:40:59;23.40;99.90
18446;DHT22;9352;50.888;4.466;2022-07-06T09:43:28;23.50;99.90
18446;DHT22;9352;50.888;4.466;2022-07-06T09:45:56;22.70;99.90
18446;DHT22;9352;50.888;4.466;2022-07-06T09:48:25;22.90;99.90
18446;DHT22;9352;50.888;4.466;2022-07-06T09:50:54;22.70;99.90
18446;DHT22;9352;50.888;4.466;2022-07-06T09:53:22;22.50;99.90
18446;DHT22;9352;50.888;4.466;2022-07-06T09:55:52;22.20;99.90
18446;DHT22;9352;50.888;4.466;2022-07-06T09:58:19;22.30;99.90
18446;DHT22;9352;50.888;4.466;2022-07-06T10:00:47;22.80;99.90
18446;DHT22;9352;50.888;4.466;2022-07-06T10:03:15;22.80;99.90
18446;DHT22;9352;50.888;4.466;2022-07-06T10:05:44;22.30;99.90
18446;DHT22;9352;50.888;4.466;2022-07-06T10:08:13;22.70;99.90
18446;DHT22;9352;50.888;4.466;2022-07-06T10:10:41;22.70;99.90
18446;DHT22;9352;50.888;4.466;2022-07-06T10:15:58;22.90;99.90
18446;DHT22;9352;50.888;4.466;2022-07-06T10:18:25;22.90;99.90
18446;DHT22;9352;50.888;4.466;2022-07-06T10:20:53;23.00;99.90
18446;DHT22;9352;50.888;4.466;2022-07-06T10:23:21;22.80;99.90
18446;DHT22;9352;50.888;4.466;2022-07-06T10:25:50;23.90;99.90
18446;DHT22;9352;50.888;4.466;2022-07-06T10:28:19;24.10;99.90
18446;DHT22;9352;50.888;4.466;2022-07-06T10:30:47;24.50;99.90
18446;DHT22;9352;50.888;4.466;2022-07-06T10:33:16;25.30;99.90
18446;DHT22;9352;50.888;4.466;2022-07-06T10:35:43;24.50;99.90
18446;DHT22;9352;50.888;4.466;2022-07-06T10:38:11;24.50;99.90
18446;DHT22;9352;50.888;4.466;2022-07-06T10:40:39;24.00;99.90
18446;DHT22;9352;50.888;4.466;2022-07-06T10:43:33;24.30;99.90
18446;DHT22;9352;50.888;4.466;2022-07-06T10:46:05;24.50;99.90
18446;DHT22;9352;50.888;4.466;2022-07-06T10:48:35;24.50;99.90
18446;DHT22;9352;50.888;4.466;2022-07-06T10:51:02;23.50;99.90
18446;DHT22;9352;50.888;4.466;2022-07-06T10:53:32;22.60;99.90
18446;DHT22;9352;50.888;4.466;2022-07-06T10:56:02;23.00;99.90
18446;DHT22;9352;50.888;4.466;2022-07-06T10:58:38;23.20;99.90
18446;DHT22;9352;50.888;4.466;2022-07-06T11:01:06;23.20;99.90
18446;DHT22;9352;50.888;4.466;2022-07-06T11:03:35;23.50;99.90
18446;DHT22;9352;50.888;4.466;2022-07-06T11:06:05;24.10;99.90
18446;DHT22;9352;50.888;4.466;2022-07-06T11:08:43;23.90;99.90
18446;DHT22;9352;50.888;4.466;2022-07-06T11:11:11;23.20;99.90
18446;DHT22;9352;50.888;4.466;2022-07-06T11:13:47;24.00;99.90
18446;DHT22;9352;50.888;4.466;2022-07-06T11:16:14;25.60;99.90
18446;DHT22;9352;50.888;4.466;2022-07-06T11:18:42;26.90;99.90
18446;DHT22;9352;50.888;4.466;2022-07-06T11:21:16;27.70;99.90
18446;DHT22;9352;50.888;4.466;2022-07-06T11:23:45;26.60;99.90
18446;DHT22;9352;50.888;4.466;2022-07-06T11:26:13;26.30;99.90
18446;DHT22;9352;50.888;4.466;2022-07-06T11:28:40;26.40;99.90
18446;DHT22;9352;50.888;4.466;2022-07-06T11:31:08;26.40;99.90
18446;DHT22;9352;50.888;4.466;2022-07-06T11:33:35;25.70;99.90
18446;DHT22;9352;50.888;4.466;2022-07-06T11:36:15;25.60;99.90
18446;DHT22;9352;50.888;4.466;2022-07-06T11:38:43;26.20;99.90
18446;DHT22;9352;50.888;4.466;2022-07-06T11:41:10;26.70;99.90
18446;DHT22;9352;50.888;4.466;2022-07-06T11:43:39;26.50;99.90
18446;DHT22;9352;50.888;4.466;2022-07-06T11:46:20;26.30;99.90
18446;DHT22;9352;50.888;4.466;2022-07-06T11:48:47;26.80;99.90
18446;DHT22;9352;50.888;4.466;2022-07-06T11:51:14;26.70;99.90
18446;DHT22;9352;50.888;4.466;2022-07-06T11:53:43;26.50;99.90
18446;DHT22;9352;50.888;4.466;2022-07-06T11:56:11;26.90;99.90
18446;DHT22;9352;50.888;4.466;2022-07-06T11:58:39;27.40;99.90
18446;DHT22;9352;50.888;4.466;2022-07-06T12:01:09;28.00;99.90
18446;DHT22;9352;50.888;4.466;2022-07-06T12:03:38;28.80;99.00
18446;DHT22;9352;50.888;4.466;2022-07-06T12:06:09;28.50;98.50
18446;DHT22;9352;50.888;4.466;2022-07-06T12:08:42;28.30;98.30
18446;DHT22;9352;50.888;4.466;2022-07-06T12:11:10;27.60;98.20
18446;DHT22;9352;50.888;4.466;2022-07-06T12:13:37;27.00;99.60
18446;DHT22;9352;50.888;4.466;2022-07-06T12:16:12;25.80;99.90
18446;DHT22;9352;50.888;4.466;2022-07-06T12:18:42;25.50;99.90
18446;DHT22;9352;50.888;4.466;2022-07-06T12:21:11;25.40;99.90
18446;DHT22;9352;50.888;4.466;2022-07-06T12:23:40;25.80;99.90
18446;DHT22;9352;50.888;4.466;2022-07-06T12:26:07;25.40;99.90
18446;DHT22;9352;50.888;4.466;2022-07-06T12:28:34;25.40;99.90
18446;DHT22;9352;50.888;4.466;2022-07-06T12:31:02;25.20;99.90
18446;DHT22;9352;50.888;4.466;2022-07-06T12:33:29;25.90;99.90
18446;DHT22;9352;50.888;4.466;2022-07-06T12:36:08;26.50;99.90
18446;DHT22;9352;50.888;4.466;2022-07-06T12:38:35;26.70;99.90
18446;DHT22;9352;50.888;4.466;2022-07-06T12:41:02;26.30;99.90
18446;DHT22;9352;50.888;4.466;2022-07-06T12:43:36;25.00;99.90
18446;DHT22;9352;50.888;4.466;2022-07-06T12:46:29;25.20;99.90
18446;DHT22;9352;50.888;4.466;2022-07-06T12:49:00;27.10;99.90
18446;DHT22;9352;50.888;4.466;2022-07-06T12:51:29;27.70;98.80
18446;DHT22;9352;50.888;4.466;2022-07-06T12:54:12;28.30;97.00
18446;DHT22;9352;50.888;4.466;2022-07-06T12:57:01;29.40;95.80
18446;DHT22;9352;50.888;4.466;2022-07-06T12:59:28;30.90;93.80
18446;DHT22;9352;50.888;4.466;2022-07-06T13:01:56;31.10;92.50
18446;DHT22;9352;50.888;4.466;2022-07-06T13:04:23;32.00;90.30
18446;DHT22;9352;50.888;4.466;2022-07-06T13:06:52;31.60;90.30
18446;DHT22;9352;50.888;4.466;2022-07-06T13:09:20;30.60;91.20
18446;DHT22;9352;50.888;4.466;2022-07-06T13:11:48;27.60;94.10
18446;DHT22;9352;50.888;4.466;2022-07-06T13:14:15;26.70;94.40
18446;DHT22;9352;50.888;4.466;2022-07-06T13:16:42;26.80;95.40
18446;DHT22;9352;50.888;4.466;2022-07-06T13:19:09;27.30;94.70
18446;DHT22;9352;50.888;4.466;2022-07-06T13:21:36;27.00;94.30
18446;DHT22;9352;50.888;4.466;2022-07-06T13:24:05;27.00;95.60
18446;DHT22;9352;50.888;4.466;2022-07-06T13:26:33;26.90;95.60
18446;DHT22;9352;50.888;4.466;2022-07-06T13:29:00;26.90;96.30
18446;DHT22;9352;50.888;4.466;2022-07-06T13:31:27;27.30;95.40
18446;DHT22;9352;50.888;4.466;2022-07-06T13:33:55;28.80;94.90
18446;DHT22;9352;50.888;4.466;2022-07-06T13:36:23;30.30;92.90
18446;DHT22;9352;50.888;4.466;2022-07-06T13:38:50;30.40;92.20
18446;DHT22;9352;50.888;4.466;2022-07-06T13:41:18;28.90;92.80
18446;DHT22;9352;50.888;4.466;2022-07-06T13:43:45;28.90;93.50
18446;DHT22;9352;50.888;4.466;2022-07-06T13:46:12;27.30;93.90
18446;DHT22;9352;50.888;4.466;2022-07-06T13:48:39;27.70;94.10
18446;DHT22;9352;50.888;4.466;2022-07-06T13:51:06;27.50;93.70
18446;DHT22;9352;50.888;4.466;2022-07-06T13:53:33;27.70;94.00
18446;DHT22;9352;50.888;4.466;2022-07-06T13:56:00;29.70;93.10
18446;DHT22;9352;50.888;4.466;2022-07-06T13:58:29;31.90;91.10
18446;DHT22;9352;50.888;4.466;2022-07-06T14:00:56;32.20;90.60
18446;DHT22;9352;50.888;4.466;2022-07-06T14:03:23;32.60;88.50
18446;DHT22;9352;50.888;4.466;2022-07-06T14:05:55;32.80;86.90
18446;DHT22;9352;50.888;4.466;2022-07-06T14:08:22;34.60;82.90
18446;DHT22;9352;50.888;4.466;2022-07-06T14:10:49;33.00;82.30
18446;DHT22;9352;50.888;4.466;2022-07-06T14:13:16;31.60;84.30
18446;DHT22;9352;50.888;4.466;2022-07-06T14:15:45;30.90;87.00
18446;DHT22;9352;50.888;4.466;2022-07-06T14:18:12;29.30;89.20
18446;DHT22;9352;50.888;4.466;2022-07-06T14:20:40;29.10;90.20
18446;DHT22;9352;50.888;4.466;2022-07-06T14:23:07;29.00;90.10
18446;DHT22;9352;50.888;4.466;2022-07-06T14:25:34;28.40;91.20
18446;DHT22;9352;50.888;4.466;2022-07-06T14:28:01;28.00;91.50
18446;DHT22;9352;50.888;4.466;2022-07-06T14:30:28;27.80;91.90
18446;DHT22;9352;50.888;4.466;2022-07-06T14:32:57;27.40;92.60
18446;DHT22;9352;50.888;4.466;2022-07-06T14:35:24;27.10;92.30
18446;DHT22;9352;50.888;4.466;2022-07-06T14:37:51;27.10;93.10
18446;DHT22;9352;50.888;4.466;2022-07-06T14:40:18;27.20;92.80
18446;DHT22;9352;50.888;4.466;2022-07-06T14:42:45;27.10;93.00
18446;DHT22;9352;50.888;4.466;2022-07-06T14:45:12;27.50;93.00
18446;DHT22;9352;50.888;4.466;2022-07-06T14:47:38;27.40;93.20
18446;DHT22;9352;50.888;4.466;2022-07-06T14:50:07;28.80;91.80
18446;DHT22;9352;50.888;4.466;2022-07-06T14:52:34;29.30;91.90
18446;DHT22;9352;50.888;4.466;2022-07-06T14:55:01;29.30;92.50
18446;DHT22;9352;50.888;4.466;2022-07-06T14:57:28;31.40;88.90
18446;DHT22;9352;50.888;4.466;2022-07-06T14:59:55;32.50;87.70
18446;DHT22;9352;50.888;4.466;2022-07-06T15:02:22;33.90;84.90
18446;DHT22;9352;50.888;4.466;2022-07-06T15:04:49;35.50;81.50
18446;DHT22;9352;50.888;4.466;2022-07-06T15:07:17;36.70;76.70
18446;DHT22;9352;50.888;4.466;2022-07-06T15:09:44;33.70;79.10
18446;DHT22;9352;50.888;4.466;2022-07-06T15:12:11;31.10;82.20
18446;DHT22;9352;50.888;4.466;2022-07-06T15:14:38;29.90;86.40
18446;DHT22;9352;50.888;4.466;2022-07-06T15:17:06;30.30;85.50
18446;DHT22;9352;50.888;4.466;2022-07-06T15:19:33;30.20;87.00
18446;DHT22;9352;50.888;4.466;2022-07-06T15:22:00;29.70;87.80
18446;DHT22;9352;50.888;4.466;2022-07-06T15:24:28;28.90;89.00
18446;DHT22;9352;50.888;4.466;2022-07-06T15:26:55;28.10;90.40
18446;DHT22;9352;50.888;4.466;2022-07-06T15:29:22;27.60;90.80
18446;DHT22;9352;50.888;4.466;2022-07-06T15:31:49;26.80;91.80
18446;DHT22;9352;50.888;4.466;2022-07-06T15:34:16;26.80;92.40
18446;DHT22;9352;50.888;4.466;2022-07-06T15:36:44;26.70;92.40
18446;DHT22;9352;50.888;4.466;2022-07-06T15:39:11;26.20;92.60
18446;DHT22;9352;50.888;4.466;2022-07-06T15:41:39;26.00;93.40
18446;DHT22;9352;50.888;4.466;2022-07-06T15:44:06;25.90;93.60
18446;DHT22;9352;50.888;4.466;2022-07-06T15:46:32;26.20;93.60
18446;DHT22;9352;50.888;4.466;2022-07-06T15:48:59;26.20;93.70
18446;DHT22;9352;50.888;4.466;2022-07-06T15:51:26;26.30;93.60
18446;DHT22;9352;50.888;4.466;2022-07-06T15:53:53;27.90;92.00